createdAt,value
2023-04-19T00:01:39.752Z,101003.05
2023-04-19T00:06:46.504Z,100992.79
2023-04-19T00:11:52.030Z,100990.63
2023-04-19T00:16:57.549Z,100979.77
2023-04-19T00:22:03.155Z,100979.66
2023-04-19T00:27:09.310Z,100972.02
2023-04-19T00:32:16.570Z,100971.11
2023-04-19T00:37:22.161Z,100969.81
2023-04-19T00:42:28.119Z,100963.92
2023-04-19T00:47:34.281Z,100964.55
2023-04-19T00:52:40.322Z,100958.27
2023-04-19T00:57:46.552Z,100952.69
2023-04-19T01:02:52.488Z,100950.00
2023-04-19T01:07:58.402Z,100945.88
2023-04-19T01:13:03.850Z,100938.14
2023-04-19T01:18:09.356Z,100934.26
2023-04-19T01:23:14.901Z,100921.55
2023-04-19T01:28:20.274Z,100920.89
2023-04-19T01:33:28.432Z,100915.42
2023-04-19T01:38:35.062Z,100912.34
2023-04-19T01:43:40.622Z,100904.88
2023-04-19T01:48:47.649Z,100905.05
2023-04-19T01:53:54.600Z,100904.40
2023-04-19T01:59:01.854Z,100898.43
2023-04-19T02:04:08.733Z,100895.87
2023-04-19T02:09:14.472Z,100893.96
2023-04-19T02:14:20.999Z,100896.09
2023-04-19T02:19:26.633Z,100894.09
2023-04-19T02:24:32.264Z,100893.96
2023-04-19T02:29:37.870Z,100888.59
2023-04-19T02:34:43.353Z,100886.17
2023-04-19T02:39:48.815Z,100883.30
2023-04-19T02:44:54.433Z,100881.44
2023-04-19T02:50:03.200Z,100876.80
2023-04-19T02:55:11.513Z,100869.52
2023-04-19T03:00:18.747Z,100870.40
2023-04-19T03:05:34.051Z,100862.15
2023-04-19T03:10:39.718Z,100861.13
2023-04-19T03:15:45.247Z,100857.12
2023-04-19T03:20:50.785Z,100852.64
2023-04-19T03:25:57.218Z,100848.69
2023-04-19T03:31:15.780Z,100841.77
2023-04-19T03:36:21.923Z,100834.79
2023-04-19T03:41:28.724Z,100831.84
2023-04-19T03:46:59.956Z,100827.71
2023-04-19T03:52:07.055Z,100827.06
2023-04-19T03:57:15.597Z,100824.11
2023-04-19T04:02:21.526Z,100815.63
2023-04-19T04:07:27.281Z,100812.89
2023-04-19T04:12:33.567Z,100811.73
2023-04-19T04:17:39.748Z,100803.27
2023-04-19T04:22:47.420Z,100799.29
2023-04-19T04:27:56.585Z,100800.66
2023-04-19T04:33:03.513Z,100796.18
2023-04-19T04:38:21.365Z,100793.23
2023-04-19T04:43:33.642Z,100791.50
2023-04-19T04:48:39.117Z,100787.85
2023-04-19T04:53:44.830Z,100783.19
2023-04-19T04:58:50.997Z,100772.78
2023-04-19T05:04:05.725Z,100765.79
2023-04-19T05:09:11.986Z,100761.79
2023-04-19T05:14:18.377Z,100757.83
2023-04-19T05:19:24.089Z,100760.59
2023-04-19T05:24:34.916Z,100760.91
2023-04-19T05:29:41.523Z,100757.77
2023-04-19T05:34:47.208Z,100760.01
2023-04-19T05:39:53.863Z,100761.33
2023-04-19T05:44:59.528Z,100760.52
2023-04-19T05:50:07.831Z,100760.22
2023-04-19T05:55:18.301Z,100753.64
2023-04-19T06:00:24.427Z,100750.14
2023-04-19T06:05:34.097Z,100747.91
2023-04-19T06:10:54.141Z,100749.18
2023-04-19T06:16:03.129Z,100751.58
2023-04-19T06:21:09.292Z,100751.73
2023-04-19T06:26:15.085Z,100746.39
2023-04-19T06:31:20.750Z,100744.33
2023-04-19T06:36:26.925Z,100741.61
2023-04-19T06:41:33.553Z,100739.20
2023-04-19T06:46:39.438Z,100738.60
2023-04-19T06:51:45.544Z,100733.07
2023-04-19T06:56:51.455Z,100728.47
2023-04-19T07:01:58.208Z,100733.02
2023-04-19T07:07:04.194Z,100737.20
2023-04-19T07:12:09.829Z,100747.23
2023-04-19T07:17:15.613Z,100748.06
2023-04-19T07:22:22.264Z,100749.80
2023-04-19T07:27:27.807Z,100748.35
2023-04-19T07:32:33.664Z,100747.08
2023-04-19T07:37:39.248Z,100753.48
2023-04-19T07:42:44.858Z,100752.58
2023-04-19T07:47:50.889Z,100750.41
2023-04-19T07:52:56.856Z,100752.64
2023-04-19T07:58:02.862Z,100748.73
2023-04-19T08:03:09.442Z,100749.76
2023-04-19T08:08:16.118Z,100750.67
2023-04-19T08:13:21.729Z,100745.21
2023-04-19T08:18:27.369Z,100745.86
2023-04-19T08:23:45.051Z,100749.29
2023-04-19T08:28:53.702Z,100740.33
2023-04-19T08:34:00.543Z,100745.33
2023-04-19T08:39:12.242Z,100738.04
2023-04-19T08:44:34.991Z,100741.89
2023-04-19T08:49:43.446Z,100743.42
2023-04-19T08:54:49.830Z,100747.57
2023-04-19T08:59:55.802Z,100751.29
2023-04-19T09:05:01.477Z,100756.80
2023-04-19T09:10:09.762Z,100757.02
2023-04-19T09:15:15.835Z,100753.18
2023-04-19T09:20:37.751Z,100754.77
2023-04-19T09:31:30.291Z,100770.47
2023-04-19T09:36:42.428Z,100772.55
2023-04-19T09:41:55.002Z,100773.21
2023-04-19T09:47:00.897Z,100778.02
2023-04-19T09:52:07.353Z,100771.42
2023-04-19T09:57:13.630Z,100777.14
2023-04-19T10:02:20.739Z,100780.70
2023-04-19T10:07:30.883Z,100778.39
2023-04-19T10:12:52.368Z,100775.73
2023-04-19T10:18:03.519Z,100779.55
2023-04-19T10:23:10.712Z,100777.98
2023-04-19T10:28:17.222Z,100782.06
2023-04-19T10:33:28.799Z,100781.09
2023-04-19T10:38:40.088Z,100782.33
2023-04-19T10:43:48.771Z,100786.00
2023-04-19T10:48:57.736Z,100783.33
2023-04-19T10:54:04.437Z,100779.48
2023-04-19T10:59:22.256Z,100780.92
2023-04-19T11:04:55.022Z,100782.05
2023-04-19T11:10:00.452Z,100782.79
2023-04-19T11:15:09.963Z,100776.73
2023-04-19T11:20:15.783Z,100769.56
2023-04-19T11:25:22.610Z,100768.02
2023-04-19T11:30:32.271Z,100766.61
2023-04-19T11:35:38.398Z,100765.58
2023-04-19T11:40:44.318Z,100765.92
2023-04-19T11:45:49.862Z,100770.78
2023-04-19T11:51:00.168Z,100768.33
2023-04-19T11:56:08.843Z,100764.96
2023-04-19T12:01:16.072Z,100755.86
2023-04-19T12:06:25.743Z,100760.85
2023-04-19T12:11:44.846Z,100767.64
2023-04-19T12:17:07.997Z,100772.76
2023-04-19T12:22:15.934Z,100775.96
2023-04-19T12:27:21.519Z,100782.95
2023-04-19T12:32:27.275Z,100783.10
2023-04-19T12:37:33.184Z,100782.23
2023-04-19T12:42:38.790Z,100788.78
2023-04-19T12:47:45.894Z,100791.36
2023-04-19T12:52:53.575Z,100793.94
2023-04-19T12:57:59.408Z,100792.29
2023-04-19T13:03:05.562Z,100793.61
2023-04-19T13:08:11.662Z,100788.79
2023-04-19T13:13:17.333Z,100781.95
2023-04-19T13:18:23.563Z,100781.33
2023-04-19T13:23:29.225Z,100783.16
2023-04-19T13:28:35.996Z,100781.48
2023-04-19T13:33:42.015Z,100780.00
2023-04-19T13:38:48.532Z,100775.20
2023-04-19T13:43:55.231Z,100775.60
2023-04-19T13:49:03.450Z,100771.89
2023-04-19T13:54:10.085Z,100775.75
2023-04-19T13:59:16.257Z,100774.63
2023-04-19T14:04:22.453Z,100769.38
2023-04-19T14:09:28.603Z,100771.43
2023-04-19T14:14:34.962Z,100766.88
2023-04-19T14:19:41.513Z,100763.16
2023-04-19T14:24:47.428Z,100753.76
2023-04-19T14:29:52.879Z,100750.89
2023-04-19T14:34:58.846Z,100747.95
2023-04-19T14:40:05.080Z,100748.42
2023-04-19T14:45:12.016Z,100750.73
2023-04-19T14:50:17.597Z,100754.30
2023-04-19T14:55:25.122Z,100751.91
2023-04-19T15:00:31.206Z,100754.11
2023-04-19T15:05:37.326Z,100766.18
2023-04-19T15:10:42.743Z,100797.66
2023-04-19T15:15:48.623Z,100811.05
2023-04-19T15:20:54.157Z,100827.35
2023-04-19T15:25:59.721Z,100830.08
2023-04-19T15:31:07.554Z,100829.34
2023-04-19T15:36:13.302Z,100816.67
2023-04-19T15:41:19.001Z,100811.61
2023-04-19T15:46:24.598Z,100803.85
2023-04-19T15:51:31.648Z,100802.90
2023-04-19T15:56:37.151Z,100805.73
2023-04-19T16:01:42.660Z,100818.30
2023-04-19T16:06:48.162Z,100828.52
2023-04-19T16:11:53.781Z,100833.54
2023-04-19T16:17:00.690Z,100840.70
2023-04-19T16:22:06.099Z,100844.24
2023-04-19T16:27:11.541Z,100849.46
2023-04-19T16:32:17.032Z,100850.85
2023-04-19T16:37:22.757Z,100855.30
2023-04-19T16:42:28.144Z,100856.89
2023-04-19T16:47:34.893Z,100859.30
2023-04-19T16:52:40.673Z,100861.42
2023-04-19T16:57:46.086Z,100870.09
2023-04-19T17:02:53.297Z,100870.61
2023-04-19T17:07:59.001Z,100872.06
2023-04-19T17:13:04.593Z,100879.67
2023-04-19T17:18:10.157Z,100880.70
2023-04-19T17:23:16.001Z,100885.91
2023-04-19T17:28:21.644Z,100889.36
2023-04-19T17:33:27.277Z,100896.27
2023-04-19T17:38:34.526Z,100902.95
2023-04-19T17:43:40.092Z,100906.59
2023-04-19T17:48:45.690Z,100915.52
2023-04-19T17:53:51.510Z,100923.08
2023-04-19T17:58:56.995Z,100924.57
2023-04-19T18:04:03.427Z,100931.39
2023-04-19T18:09:09.339Z,100939.50
2023-04-19T18:14:17.641Z,100939.06
2023-04-19T18:19:24.164Z,100937.77
2023-04-19T18:24:30.628Z,100942.42
2023-04-19T18:29:36.316Z,100943.86
2023-04-19T18:34:42.869Z,100942.98
2023-04-19T18:39:49.122Z,100943.67
2023-04-19T18:44:55.372Z,100941.41
2023-04-19T18:50:05.793Z,100946.49
2023-04-19T18:55:12.386Z,100949.04
2023-04-19T19:00:19.933Z,100951.77
2023-04-19T19:05:25.836Z,100957.51
2023-04-19T19:11:06.711Z,100951.61
2023-04-19T19:15:57.575Z,100949.49
2023-04-19T19:21:03.584Z,100956.03
2023-04-19T19:26:11.287Z,100956.89
2023-04-19T19:31:17.121Z,100957.04
2023-04-19T19:36:22.818Z,100956.07
2023-04-19T19:42:03.497Z,100957.62
2023-04-19T19:46:56.739Z,100959.55
2023-04-19T19:52:02.577Z,100957.42
2023-04-19T19:58:01.581Z,100955.10
2023-04-19T20:02:34.867Z,100947.94
2023-04-19T20:08:00.559Z,100943.90
2023-04-19T20:13:07.232Z,100951.03
2023-04-19T20:18:13.041Z,100947.73
2023-04-19T20:23:21.625Z,100945.13
2023-04-19T20:28:27.216Z,100939.66
2023-04-19T20:33:33.802Z,100937.85
2023-04-19T20:38:39.853Z,100941.38
2023-04-19T20:43:45.416Z,100949.81
2023-04-19T20:48:50.998Z,100950.33
2023-04-19T20:53:56.548Z,100958.91
2023-04-19T20:59:02.030Z,100961.01
2023-04-19T21:04:08.797Z,100956.85
2023-04-19T21:09:14.671Z,100959.15
2023-04-19T21:14:20.373Z,100963.88
2023-04-19T21:19:26.537Z,100967.80
2023-04-19T21:24:32.173Z,100964.30
2023-04-19T21:29:37.729Z,100970.19
2023-04-19T21:34:43.534Z,100970.66
2023-04-19T21:39:49.455Z,100978.52
2023-04-19T21:44:56.684Z,100976.95
2023-04-19T21:50:03.151Z,100982.77
2023-04-19T21:55:09.894Z,100986.14
2023-04-19T22:00:18.287Z,100986.52
2023-04-19T22:05:23.801Z,100984.06
2023-04-19T22:10:31.481Z,100986.84
2023-04-19T22:15:38.350Z,100983.80
2023-04-19T22:20:44.343Z,100981.45
2023-04-19T22:25:49.937Z,100987.40
2023-04-19T22:30:55.797Z,100986.69
2023-04-19T22:36:01.290Z,100984.44
2023-04-19T22:41:07.071Z,100985.20
2023-04-19T22:46:13.361Z,100984.54
2023-04-19T22:51:19.059Z,100981.44
2023-04-19T22:56:24.632Z,100985.42
2023-04-19T23:01:30.431Z,100984.58
2023-04-19T23:06:36.970Z,100983.80
2023-04-19T23:11:42.647Z,100979.67
2023-04-19T23:16:48.492Z,100973.05
2023-04-19T23:21:54.226Z,100974.41
2023-04-19T23:27:00.160Z,100977.82
2023-04-19T23:32:05.889Z,100975.55
2023-04-19T23:37:12.211Z,100977.34
2023-04-19T23:42:17.765Z,100971.84
2023-04-19T23:47:23.400Z,100974.18
2023-04-19T23:52:29.217Z,100969.41
2023-04-19T23:57:36.462Z,100960.63
